Time;durP1;ratioP1;P1;durP2;ratioP2;P2;SDS_P1;SDS_P2;PMS_P1;PMS_P2;Temp;Humidity;BMP_temperature;BMP_pressure;BME280_temperature;BME280_humidity;BME280_pressure;Samples;Min_cycle;Max_cycle;Signal;HPM_P1;HPM_P2
2021/04/26 00:00:31;;;;;;;8.27;7.57;;;5.00;1.00;;;;;;5071495;28;20720;-65
2021/04/26 00:02:58;;;;;;;8.30;7.50;;;5.00;1.00;;;;;;5077347;28;20270;-66
2021/04/26 00:05:24;;;;;;;10.00;8.90;;;5.00;1.00;;;;;;5079584;28;20922;-65
2021/04/26 00:07:49;;;;;;;9.80;7.90;;;5.00;1.00;;;;;;5072847;28;20495;-65
2021/04/26 00:10:16;;;;;;;9.30;8.27;;;5.00;1.00;;;;;;5074001;28;20453;-65
2021/04/26 00:12:42;;;;;;;10.30;8.53;;;5.00;1.00;;;;;;5072221;28;20187;-65
2021/04/26 00:15:20;;;;;;;10.77;8.87;;;5.00;1.00;;;;;;5073268;28;20483;-65
2021/04/26 00:17:46;;;;;;;10.80;7.70;;;4.90;1.00;;;;;;5076751;28;20472;-65
2021/04/26 00:20:16;;;;;;;11.47;8.87;;;5.00;1.00;;;;;;5079266;28;20802;-65
2021/04/26 00:22:42;;;;;;;9.43;7.73;;;4.90;1.00;;;;;;5069782;28;20438;-65
2021/04/26 00:25:08;;;;;;;9.90;8.77;;;4.90;1.00;;;;;;5068630;28;20446;-65
2021/04/26 00:27:35;;;;;;;9.97;8.33;;;4.90;1.00;;;;;;5067926;28;20192;-65
2021/04/26 00:30:02;;;;;;;10.57;8.93;;;4.80;1.00;;;;;;5072192;28;20559;-64
2021/04/26 00:32:27;;;;;;;8.80;7.90;;;4.70;1.00;;;;;;5076609;28;20487;-65
2021/04/26 00:34:53;;;;;;;10.97;8.97;;;;;;;;;;5073197;28;20504;-65
2021/04/26 00:37:19;;;;;;;9.90;8.67;;;4.70;1.00;;;;;;5077026;28;20362;-64
2021/04/26 00:39:44;;;;;;;9.90;8.13;;;4.70;1.00;;;;;;5072704;28;20446;-65
2021/04/26 00:42:10;;;;;;;9.57;8.33;;;4.70;1.00;;;;;;5067509;28;20275;-65
2021/04/26 00:44:36;;;;;;;9.90;8.87;;;4.60;1.00;;;;;;5067726;28;20549;-65
2021/04/26 00:47:01;;;;;;;12.00;8.27;;;4.60;1.00;;;;;;5069500;28;20191;-65
2021/04/26 00:49:29;;;;;;;10.90;8.70;;;4.60;1.00;;;;;;5067551;28;20187;-64
2021/04/26 00:51:54;;;;;;;11.70;8.30;;;5.20;1.00;;;;;;5075844;28;20178;-65
2021/04/26 00:54:20;;;;;;;10.67;9.60;;;4.50;1.00;;;;;;5083819;28;20942;-66
2021/04/26 00:56:46;;;;;;;11.60;9.00;;;4.50;1.00;;;;;;5079704;28;20190;-65
2021/04/26 00:59:12;;;;;;;10.67;9.43;;;4.60;1.00;;;;;;5071962;28;20214;-65
2021/04/26 01:01:37;;;;;;;9.93;8.70;;;4.50;1.00;;;;;;5078580;28;20180;-65
2021/04/26 01:04:03;;;;;;;13.63;9.87;;;4.40;1.00;;;;;;5083112;28;20851;-65
2021/04/26 01:06:29;;;;;;;10.73;9.17;;;4.40;1.00;;;;;;5077634;28;20183;-65
2021/04/26 01:08:54;;;;;;;10.57;9.47;;;5.30;1.00;;;;;;5080312;28;20579;-64
2021/04/26 01:11:25;;;;;;;9.97;8.87;;;4.30;1.00;;;;;;5076835;28;20557;-65
2021/04/26 01:14:05;;;;;;;12.80;9.60;;;4.10;1.00;;;;;;5068013;28;20195;-65
2021/04/26 01:16:57;;;;;;;11.70;9.40;;;4.20;1.00;;;;;;5074848;28;20459;-65
2021/04/26 01:20:13;;;;;;;11.00;9.90;;;4.20;1.00;;;;;;5071973;28;20452;-65
2021/04/26 01:23:00;;;;;;;12.77;10.00;;;4.00;1.00;;;;;;5053279;28;20465;-65
2021/04/26 01:25:27;;;;;;;11.10;9.50;;;4.10;1.00;;;;;;5085220;28;20444;-64
2021/04/26 01:28:15;;;;;;;10.80;9.60;;;4.00;1.00;;;;;;5084451;28;20439;-65
2021/04/26 01:30:56;;;;;;;10.87;9.67;;;4.00;1.00;;;;;;5073783;28;20541;-64
2021/04/26 01:33:25;;;;;;;12.87;10.10;;;3.90;9.10;;;;;;5071604;28;20982;-64
2021/04/26 01:35:54;;;;;;;11.77;10.37;;;3.90;94.20;;;;;;5071998;28;21003;-64
2021/04/26 01:38:26;;;;;;;13.47;10.80;;;3.90;94.30;;;;;;5073606;28;21228;-64
2021/04/26 01:40:54;;;;;;;13.00;10.07;;;3.90;99.90;;;;;;5076252;28;20442;-64
2021/04/26 01:43:26;;;;;;;11.57;10.40;;;3.90;99.90;;;;;;5085384;28;20464;-64
2021/04/26 01:45:57;;;;;;;11.67;10.13;;;3.90;99.90;;;;;;5074158;28;20529;-65
2021/04/26 01:48:25;;;;;;;12.17;9.30;;;3.90;99.90;;;;;;5074150;28;20440;-64
2021/04/26 01:50:51;;;;;;;10.23;9.03;;;4.00;99.90;;;;;;5073372;28;20441;-64
2021/04/26 01:53:19;;;;;;;10.80;9.70;;;3.80;99.90;;;;;;5072120;28;20468;-64
2021/04/26 01:55:46;;;;;;;9.63;8.63;;;3.80;99.90;;;;;;5073027;28;20460;-64
2021/04/26 01:58:13;;;;;;;10.10;8.83;;;3.80;99.90;;;;;;5072098;28;20473;-64
2021/04/26 02:00:39;;;;;;;10.23;8.40;;;3.80;99.90;;;;;;5078376;28;20481;-64
2021/04/26 02:03:05;;;;;;;11.87;10.23;;;3.80;99.90;;;;;;5070518;28;20536;-64
2021/04/26 02:05:33;;;;;;;10.57;9.03;;;3.70;99.90;;;;;;5072493;28;20190;-65
2021/04/26 02:07:59;;;;;;;9.37;8.37;;;3.70;99.90;;;;;;5068956;28;21583;-64
2021/04/26 02:10:28;;;;;;;11.03;8.97;;;3.70;99.90;;;;;;5071409;28;20454;-65
2021/04/26 02:12:55;;;;;;;9.53;8.53;;;3.70;99.90;;;;;;5074705;28;20446;-65
2021/04/26 02:15:21;;;;;;;10.20;7.53;;;3.70;99.90;;;;;;5068915;28;20455;-64
2021/04/26 02:17:48;;;;;;;10.97;8.03;;;3.70;99.90;;;;;;5070809;28;20484;-65
2021/04/26 02:20:15;;;;;;;9.97;8.00;;;3.70;99.90;;;;;;5068184;28;20443;-65
2021/04/26 02:22:41;;;;;;;9.40;7.97;;;3.70;99.90;;;;;;5073144;28;20788;-64
2021/04/26 02:25:10;;;;;;;8.17;7.37;;;3.50;99.90;;;;;;5072405;28;20447;-64
2021/04/26 02:27:36;;;;;;;8.07;7.27;;;;;;;;;;5072689;28;20792;-64
2021/04/26 02:30:04;;;;;;;9.07;8.17;;;3.50;99.90;;;;;;5071700;28;20974;-65
2021/04/26 02:33:04;;;;;;;8.73;7.87;;;3.50;99.90;;;;;;5076039;28;20534;-64
2021/04/26 02:35:39;;;;;;;9.83;8.83;;;3.50;99.90;;;;;;5057963;28;20454;-64
2021/04/26 02:38:08;;;;;;;11.23;8.10;;;3.40;99.90;;;;;;5079045;28;20509;-64
2021/04/26 02:40:39;;;;;;;11.70;9.07;;;3.20;99.90;;;;;;5073337;28;20476;-64
2021/04/26 02:43:06;;;;;;;10.17;9.10;;;3.20;99.90;;;;;;5070005;28;20452;-64
2021/04/26 02:45:34;;;;;;;9.67;8.47;;;3.20;99.90;;;;;;5071085;28;20525;-64
2021/04/26 02:48:00;;;;;;;9.37;8.23;;;3.20;99.90;;;;;;5082717;28;20445;-64
2021/04/26 02:50:28;;;;;;;10.60;8.40;;;3.30;99.90;;;;;;5067192;28;20461;-63
2021/04/26 02:52:54;;;;;;;10.23;9.07;;;3.30;99.90;;;;;;5072942;28;20852;-64
2021/04/26 02:55:22;;;;;;;10.37;9.17;;;3.40;99.90;;;;;;5074087;28;20798;-64
2021/04/26 02:57:49;;;;;;;9.60;8.60;;;3.50;99.90;;;;;;5075019;28;20496;-64
2021/04/26 03:00:19;;;;;;;9.43;7.60;;;3.50;99.90;;;;;;5077401;28;20971;-65
2021/04/26 03:02:46;;;;;;;8.93;7.90;;;3.50;99.90;;;;;;5071197;28;20436;-65
2021/04/26 03:05:13;;;;;;;9.03;8.13;;;3.50;99.90;;;;;;5078446;28;20990;-64
2021/04/26 03:07:41;;;;;;;9.10;7.70;;;3.50;99.90;;;;;;5074504;28;20933;-64
2021/04/26 03:10:09;;;;;;;8.07;6.60;;;3.50;99.90;;;;;;5078031;28;20440;-64
2021/04/26 03:12:40;;;;;;;12.27;8.50;;;3.50;99.90;;;;;;5075425;28;20489;-64
2021/04/26 03:15:08;;;;;;;9.37;7.67;;;3.40;99.90;;;;;;5080051;28;20490;-64
2021/04/26 03:17:36;;;;;;;11.23;8.50;;;3.40;99.90;;;;;;5078983;28;20511;-64
2021/04/26 03:20:06;;;;;;;9.30;7.63;;;3.30;99.90;;;;;;5070675;28;20453;-64
2021/04/26 03:22:32;;;;;;;9.90;7.90;;;3.30;99.90;;;;;;5077999;28;20441;-64
2021/04/26 03:24:58;;;;;;;9.63;7.73;;;3.40;99.90;;;;;;5080087;28;20543;-64
2021/04/26 03:27:25;;;;;;;9.40;8.27;;;3.40;99.90;;;;;;5083832;28;20936;-64
2021/04/26 03:29:52;;;;;;;9.83;7.80;;;3.30;99.90;;;;;;5077356;28;20577;-64
2021/04/26 03:32:18;;;;;;;10.67;8.23;;;3.40;99.90;;;;;;5083230;28;20433;-64
2021/04/26 03:34:44;;;;;;;9.47;7.20;;;3.30;99.90;;;;;;5074164;28;20452;-64
2021/04/26 03:37:15;;;;;;;9.30;8.30;;;3.30;99.90;;;;;;5074708;28;20488;-64
2021/04/26 03:39:44;;;;;;;10.20;8.23;;;3.20;99.90;;;;;;5072319;28;20991;-64
2021/04/26 03:42:13;;;;;;;10.63;8.80;;;3.20;99.90;;;;;;5076410;28;20449;-64
2021/04/26 03:44:41;;;;;;;13.00;8.90;;;3.10;99.90;;;;;;5081391;28;20523;-64
2021/04/26 03:47:07;;;;;;;12.20;9.53;;;3.20;99.90;;;;;;5080939;28;20447;-64
2021/04/26 03:49:33;;;;;;;9.73;8.23;;;3.10;99.90;;;;;;5072035;28;20446;-64
2021/04/26 03:51:58;;;;;;;12.37;9.80;;;3.10;99.90;;;;;;5085198;28;20181;-64
2021/04/26 03:54:24;;;;;;;10.37;9.03;;;;;;;;;;5078468;28;20532;-64
2021/04/26 03:56:50;;;;;;;12.77;9.87;;;3.10;99.90;;;;;;5077255;28;20183;-64
2021/04/26 03:59:16;;;;;;;14.80;10.23;;;3.10;99.90;;;;;;5074538;28;20479;-64
2021/04/26 04:01:43;;;;;;;13.97;9.97;;;3.30;99.90;;;;;;5077223;28;20194;-59
2021/04/26 04:04:08;;;;;;;15.43;10.80;;;3.10;99.90;;;;;;5069176;28;20190;-60
2021/04/26 04:06:34;;;;;;;12.63;9.43;;;3.10;99.90;;;;;;5070491;28;20525;-61
2021/04/26 04:09:02;;;;;;;13.07;9.70;;;3.20;99.90;;;;;;5073919;28;20222;-61
2021/04/26 04:11:28;;;;;;;14.67;10.37;;;3.30;99.90;;;;;;5068546;28;20891;-61
2021/04/26 04:13:54;;;;;;;12.17;9.80;;;3.30;99.90;;;;;;5070678;28;20531;-60
2021/04/26 04:16:20;;;;;;;13.20;10.30;;;3.30;99.90;;;;;;5070402;28;20199;-61
2021/04/26 04:18:46;;;;;;;12.80;8.80;;;3.30;99.90;;;;;;5070508;28;20472;-60
2021/04/26 04:21:12;;;;;;;17.60;9.80;;;3.30;99.90;;;;;;5069684;28;20194;-59
2021/04/26 04:23:38;;;;;;;12.07;8.77;;;3.20;99.90;;;;;;5068666;28;20521;-60
2021/04/26 04:26:03;;;;;;;11.50;9.50;;;3.30;99.90;;;;;;5069716;28;20516;-59
2021/04/26 04:28:30;;;;;;;14.40;10.30;;;3.30;99.90;;;;;;5069061;28;20232;-60
2021/04/26 04:30:56;;;;;;;13.43;9.90;;;3.30;99.90;;;;;;5067936;28;20236;-60
2021/04/26 04:33:22;;;;;;;14.40;11.13;;;3.30;99.90;;;;;;5070022;28;20448;-60
2021/04/26 04:35:48;;;;;;;11.83;10.03;;;3.40;99.90;;;;;;5070650;28;20441;-60
2021/04/26 04:38:13;;;;;;;14.77;10.50;;;3.40;99.40;;;;;;5068744;28;20479;-59
2021/04/26 04:40:39;;;;;;;13.13;9.80;;;3.40;98.10;;;;;;5067451;28;20206;-59
2021/04/26 04:43:05;;;;;;;17.00;11.63;;;3.50;99.90;;;;;;5067905;28;20184;-59
2021/04/26 04:45:30;;;;;;;16.53;11.07;;;3.50;97.70;;;;;;5075928;28;20654;-60
2021/04/26 04:47:56;;;;;;;14.80;10.80;;;3.60;94.60;;;;;;5075594;28;20958;-59
2021/04/26 04:50:21;;;;;;;16.80;11.23;;;3.60;88.20;;;;;;5076200;28;20184;-59
2021/04/26 04:52:47;;;;;;;14.43;11.70;;;3.60;88.20;;;;;;5075710;28;20268;-59
2021/04/26 04:55:13;;;;;;;15.83;11.10;;;3.70;72.80;;;;;;5075009;28;20224;-59
2021/04/26 04:57:39;;;;;;;14.17;9.87;;;;;;;;;;5070687;28;20573;-60
2021/04/26 05:00:06;;;;;;;13.10;8.87;;;3.60;69.80;;;;;;5070846;28;20563;-59
2021/04/26 05:02:32;;;;;;;16.83;12.43;;;3.60;69.80;;;;;;5073860;28;20447;-59
2021/04/26 05:04:57;;;;;;;16.00;10.70;;;3.70;61.70;;;;;;5073465;28;20481;-60
2021/04/26 05:07:23;;;;;;;13.80;10.57;;;3.80;55.00;;;;;;5071108;28;20185;-60
2021/04/26 05:09:49;;;;;;;12.67;9.50;;;3.80;38.10;;;;;;5066224;28;20229;-60
2021/04/26 05:12:15;;;;;;;15.90;11.03;;;3.80;37.00;;;;;;5066713;28;20453;-59
2021/04/26 05:14:42;;;;;;;15.40;10.33;;;3.60;36.70;;;;;;5067105;28;20190;-59
2021/04/26 05:17:08;;;;;;;16.93;10.30;;;3.70;43.60;;;;;;5066918;28;20488;-59
2021/04/26 05:19:33;;;;;;;12.00;9.93;;;3.80;37.10;;;;;;5067786;28;20469;-60
2021/04/26 05:22:00;;;;;;;12.00;8.30;;;3.90;33.10;;;;;;5068423;28;20961;-60
2021/04/26 05:24:25;;;;;;;10.13;8.40;;;3.90;23.50;;;;;;5070644;28;20595;-59
2021/04/26 05:26:51;;;;;;;13.10;9.40;;;4.00;17.60;;;;;;5070785;28;20448;-60
2021/04/26 05:29:17;;;;;;;13.47;10.07;;;4.00;9.60;;;;;;5070075;28;20227;-60
2021/04/26 05:31:42;;;;;;;11.13;9.40;;;4.00;9.20;;;;;;5078952;28;20186;-59
2021/04/26 05:34:08;;;;;;;11.73;9.67;;;4.00;8.90;;;;;;5070881;28;20198;-60
2021/04/26 05:36:33;;;;;;;10.10;8.67;;;4.00;8.90;;;;;;5069758;28;20207;-59
2021/04/26 05:39:00;;;;;;;13.80;9.20;;;4.10;9.00;;;;;;5073228;28;20242;-59
2021/04/26 05:41:27;;;;;;;11.70;9.80;;;4.30;1.00;;;;;;5068222;28;20582;-60
2021/04/26 05:43:53;;;;;;;10.87;8.57;;;4.40;1.00;;;;;;5067833;28;20449;-59
2021/04/26 05:46:18;;;;;;;10.33;8.07;;;4.50;1.00;;;;;;5067152;28;20956;-60
2021/04/26 05:48:44;;;;;;;8.73;7.50;;;4.60;1.00;;;;;;5067296;28;20187;-60
2021/04/26 05:51:09;;;;;;;10.13;8.63;;;4.60;1.00;;;;;;5068183;28;20274;-60
2021/04/26 05:53:35;;;;;;;12.30;8.70;;;4.70;1.00;;;;;;5067357;28;20190;-60
2021/04/26 05:56:01;;;;;;;12.90;9.50;;;4.90;1.00;;;;;;5067735;28;20191;-60
2021/04/26 05:58:27;;;;;;;15.20;11.10;;;4.80;1.00;;;;;;5069152;28;20480;-60
2021/04/26 06:00:53;;;;;;;48.47;15.13;;;4.80;1.00;;;;;;5069419;28;20543;-60
2021/04/26 06:03:19;;;;;;;55.43;14.97;;;4.90;1.00;;;;;;5069518;28;20191;-60
2021/04/26 06:05:44;;;;;;;27.20;11.13;;;5.00;1.00;;;;;;5069590;28;20704;-60
2021/04/26 06:08:10;;;;;;;13.47;9.90;;;5.10;1.00;;;;;;5069951;28;20183;-60
2021/04/26 06:10:36;;;;;;;9.37;7.63;;;5.30;1.00;;;;;;5069132;28;20190;-60
2021/04/26 06:13:01;;;;;;;15.47;9.90;;;5.50;1.00;;;;;;5067023;28;20191;-60
2021/04/26 06:15:27;;;;;;;13.20;10.60;;;5.60;1.00;;;;;;5066830;28;20187;-60
2021/04/26 06:18:05;;;;;;;12.67;7.87;;;5.60;1.00;;;;;;5072569;28;20207;-60
2021/04/26 06:20:31;;;;;;;8.83;7.60;;;5.70;1.00;;;;;;5068249;28;20175;-60
2021/04/26 06:22:56;;;;;;;9.63;8.00;;;5.90;1.00;;;;;;5068243;28;20457;-60
2021/04/26 06:25:22;;;;;;;10.30;8.00;;;6.00;1.00;;;;;;5068977;28;20190;-60
2021/04/26 06:27:47;;;;;;;9.83;8.23;;;6.10;1.00;;;;;;5066746;28;20661;-60
2021/04/26 06:30:13;;;;;;;10.93;7.57;;;6.20;1.00;;;;;;5066727;28;20183;-60
2021/04/26 06:32:39;;;;;;;8.83;7.30;;;6.40;1.00;;;;;;5071255;28;20221;-60
2021/04/26 06:35:05;;;;;;;9.60;7.03;;;6.50;1.00;;;;;;5072429;28;20445;-60
2021/04/26 06:37:30;;;;;;;7.30;6.67;;;6.80;1.00;;;;;;5071383;28;20214;-61
2021/04/26 06:39:56;;;;;;;8.03;6.40;;;6.80;1.00;;;;;;5070256;28;20434;-60
2021/04/26 06:42:23;;;;;;;15.27;7.93;;;6.80;1.00;;;;;;5072717;28;20541;-60
2021/04/26 06:44:49;;;;;;;11.70;7.20;;;6.80;1.00;;;;;;5071603;28;20207;-60
2021/04/26 06:47:14;;;;;;;9.50;7.63;;;7.00;1.00;;;;;;5069526;28;20859;-60
2021/04/26 06:49:40;;;;;;;12.10;7.50;;;7.10;1.00;;;;;;5070224;28;20267;-60
2021/04/26 06:52:06;;;;;;;14.03;7.70;;;7.20;1.00;;;;;;5071080;28;20645;-60
2021/04/26 06:54:31;;;;;;;7.90;7.10;;;7.40;1.00;;;;;;5071712;28;20179;-60
2021/04/26 06:56:57;;;;;;;9.03;7.57;;;7.60;1.00;;;;;;5071249;28;20213;-60
2021/04/26 06:59:22;;;;;;;7.33;6.63;;;7.70;1.00;;;;;;5070897;28;20211;-58
2021/04/26 07:01:48;;;;;;;8.63;7.53;;;7.80;1.00;;;;;;5066717;28;20194;-61
2021/04/26 07:04:13;;;;;;;7.90;7.10;;;7.90;1.00;;;;;;5071667;28;20249;-60
2021/04/26 07:06:39;;;;;;;9.40;7.73;;;7.90;1.00;;;;;;5071718;28;20252;-59
2021/04/26 07:09:05;;;;;;;8.70;6.87;;;8.00;1.00;;;;;;5071147;28;20237;-60
2021/04/26 07:11:30;;;;;;;6.47;5.83;;;8.20;1.00;;;;;;5070435;28;20279;-59
2021/04/26 07:13:56;;;;;;;7.90;6.17;;;8.30;1.00;;;;;;5070059;28;20453;-58
2021/04/26 07:16:22;;;;;;;8.50;6.67;;;8.40;1.00;;;;;;5072993;28;20638;-57
2021/04/26 07:18:47;;;;;;;6.03;5.30;;;8.40;1.00;;;;;;5073036;28;20254;-57
2021/04/26 07:21:13;;;;;;;7.67;6.23;;;8.40;1.00;;;;;;5073062;28;20191;-58
2021/04/26 07:23:39;;;;;;;8.23;6.40;;;8.40;1.00;;;;;;5071728;28;20321;-57
2021/04/26 07:26:05;;;;;;;7.70;6.40;;;8.50;1.00;;;;;;5069273;28;20583;-57
2021/04/26 07:28:31;;;;;;;8.03;6.50;;;8.70;1.00;;;;;;5070198;28;20215;-57
2021/04/26 07:30:57;;;;;;;9.33;6.40;;;8.90;1.00;;;;;;5069456;28;20519;-56
2021/04/26 07:33:23;;;;;;;9.27;6.30;;;9.10;1.00;;;;;;5071454;28;20618;-57
2021/04/26 07:35:48;;;;;;;9.30;6.30;;;9.20;1.00;;;;;;5072965;28;20500;-57
2021/04/26 07:38:14;;;;;;;7.00;5.63;;;9.10;1.00;;;;;;5075678;28;20203;-57
2021/04/26 07:40:39;;;;;;;7.10;6.07;;;9.20;1.00;;;;;;5070963;28;20208;-57
2021/04/26 07:43:05;;;;;;;7.27;6.43;;;9.20;1.00;;;;;;5071225;28;20212;-56
2021/04/26 07:45:31;;;;;;;7.33;6.40;;;9.30;1.00;;;;;;5072595;28;20185;-57
2021/04/26 07:47:57;;;;;;;7.63;6.73;;;9.60;1.00;;;;;;5069338;28;20474;-57
2021/04/26 07:50:23;;;;;;;7.20;5.77;;;12.60;1.00;;;;;;5071067;28;20246;-56
2021/04/26 07:52:50;;;;;;;9.00;5.57;;;10.20;1.00;;;;;;5070398;28;20451;-56
2021/04/26 07:55:15;;;;;;;6.63;5.00;;;10.40;1.00;;;;;;5069290;28;20443;-57
2021/04/26 07:57:41;;;;;;;6.33;5.70;;;10.50;1.00;;;;;;5071263;28;20498;-58
2021/04/26 08:00:08;;;;;;;7.90;5.53;;;10.60;1.00;;;;;;5070844;28;20221;-56
2021/04/26 08:02:34;;;;;;;7.07;5.37;;;10.50;1.00;;;;;;5068890;28;20533;-57
2021/04/26 08:05:00;;;;;;;5.50;3.60;;;10.70;1.00;;;;;;5068330;28;20531;-57
2021/04/26 08:07:25;;;;;;;3.90;2.80;;;10.80;1.00;;;;;;5070651;28;20179;-59
2021/04/26 08:09:51;;;;;;;7.30;2.80;;;11.00;1.00;;;;;;5068762;28;20189;-57
2021/04/26 08:12:18;;;;;;;3.53;2.97;;;11.10;1.00;;;;;;5070090;28;20175;-59
2021/04/26 08:14:43;;;;;;;2.97;2.67;;;11.00;1.00;;;;;;5069634;28;20527;-57
2021/04/26 08:17:10;;;;;;;2.40;2.20;;;11.20;1.00;;;;;;5069845;28;20539;-59
2021/04/26 08:19:36;;;;;;;5.87;2.20;;;11.30;1.00;;;;;;5069982;28;20180;-58
2021/04/26 08:22:01;;;;;;;2.80;2.37;;;11.10;1.00;;;;;;5069720;28;20903;-59
2021/04/26 08:24:28;;;;;;;2.90;1.80;;;11.00;1.00;;;;;;5074217;28;20247;-57
2021/04/26 08:26:55;;;;;;;2.70;1.80;;;10.60;1.00;;;;;;5070534;28;20260;-57
2021/04/26 08:29:20;;;;;;;3.00;2.27;;;10.60;1.00;;;;;;5071119;28;20475;-60
2021/04/26 08:31:46;;;;;;;2.47;1.90;;;10.90;1.00;;;;;;5068936;28;20440;-57
2021/04/26 08:34:11;;;;;;;3.20;1.40;;;11.30;1.00;;;;;;5071590;28;20180;-57
2021/04/26 08:36:38;;;;;;;3.13;1.60;;;11.60;1.00;;;;;;5071964;28;20200;-59
2021/04/26 08:39:04;;;;;;;2.00;1.80;;;11.40;1.00;;;;;;5072054;28;20209;-59
2021/04/26 08:41:30;;;;;;;1.70;1.60;;;11.70;1.00;;;;;;5070783;28;20440;-57
2021/04/26 08:43:55;;;;;;;2.03;1.53;;;11.50;1.00;;;;;;5071788;28;20435;-57
2021/04/26 08:46:21;;;;;;;3.03;2.30;;;11.10;1.00;;;;;;5070888;28;20177;-57
2021/04/26 08:48:46;;;;;;;2.70;2.00;;;11.30;1.00;;;;;;5071575;28;20926;-57
2021/04/26 08:51:12;;;;;;;2.37;2.00;;;11.20;1.00;;;;;;5074672;28;20258;-57
2021/04/26 08:53:38;;;;;;;3.57;1.90;;;11.50;1.00;;;;;;5070657;28;20552;-57
2021/04/26 08:56:07;;;;;;;2.93;1.80;;;12.00;1.00;;;;;;5071450;28;20191;-57
2021/04/26 08:58:33;;;;;;;3.30;1.77;;;12.70;1.00;;;;;;5052746;28;20620;-58
2021/04/26 09:00:59;;;;;;;2.10;1.63;;;13.00;1.00;;;;;;5070935;28;20854;-59
2021/04/26 09:03:33;;;;;;;2.90;1.77;;;13.00;1.00;;;;;;5071597;28;20440;-58
2021/04/26 09:05:59;;;;;;;3.67;1.60;;;13.10;1.00;;;;;;5069978;28;20183;-58
2021/04/26 09:08:25;;;;;;;3.77;1.73;;;12.70;1.00;;;;;;5070435;28;20445;-59
2021/04/26 09:10:52;;;;;;;2.20;1.40;;;12.30;1.00;;;;;;5071191;28;20438;-57
2021/04/26 09:13:36;;;;;;;2.13;1.20;;;12.00;1.00;;;;;;5071186;28;20189;-56
2021/04/26 09:16:19;;;;;;;1.73;1.30;;;11.70;1.00;;;;;;5069817;28;20438;-58
2021/04/26 09:18:47;;;;;;;2.80;1.20;;;11.40;1.00;;;;;;5071241;28;20463;-56
2021/04/26 09:21:23;;;;;;;1.50;1.20;;;11.50;1.00;;;;;;5071191;28;20441;-57
2021/04/26 09:24:25;;;;;;;2.23;1.30;;;12.00;1.00;;;;;;5070853;28;20936;-56
2021/04/26 09:27:09;;;;;;;1.10;0.80;;;11.90;1.00;;;;;;5072499;28;20443;-58
2021/04/26 09:29:35;;;;;;;1.17;0.87;;;12.10;1.00;;;;;;5066731;28;20840;-58
2021/04/26 09:32:18;;;;;;;1.93;0.70;;;12.10;1.00;;;;;;5069637;28;20483;-57
2021/04/26 09:34:52;;;;;;;2.23;0.77;;;12.40;1.00;;;;;;5070042;28;20808;-57
2021/04/26 09:37:18;;;;;;;2.73;0.90;;;12.30;1.00;;;;;;5067881;28;20489;-58
2021/04/26 09:40:00;;;;;;;1.67;0.80;;;11.50;1.00;;;;;;5071062;28;20458;-59
2021/04/26 09:42:38;;;;;;;0.80;0.70;;;11.70;1.00;;;;;;5070577;28;20427;-58
2021/04/26 09:45:16;;;;;;;0.80;0.67;;;11.70;1.00;;;;;;5070814;28;20834;-56
2021/04/26 09:47:43;;;;;;;1.13;0.70;;;11.60;1.00;;;;;;5070276;28;20445;-59
2021/04/26 09:50:09;;;;;;;13.30;3.47;;;11.60;1.00;;;;;;5069181;28;20467;-57
2021/04/26 09:52:35;;;;;;;41.07;4.40;;;11.80;1.00;;;;;;5069913;28;20441;-58
2021/04/26 09:55:00;;;;;;;7.90;1.97;;;12.10;1.00;;;;;;5069223;28;20303;-57
2021/04/26 09:57:26;;;;;;;1.40;0.90;;;12.40;1.00;;;;;;5069371;28;20172;-56
2021/04/26 09:59:53;;;;;;;2.73;1.13;;;12.80;1.00;;;;;;5065589;28;20187;-57
2021/04/26 10:02:19;;;;;;;1.33;0.87;;;12.80;1.00;;;;;;5069165;28;20182;-56
2021/04/26 10:04:45;;;;;;;0.70;0.67;;;12.50;1.00;;;;;;5081679;28;20444;-57
2021/04/26 10:07:13;;;;;;;1.97;0.80;;;12.20;1.00;;;;;;5090449;28;20469;-58
2021/04/26 10:09:41;;;;;;;1.50;0.87;;;12.20;1.00;;;;;;5070372;28;20448;-57
2021/04/26 10:12:09;;;;;;;1.30;1.20;;;12.30;1.00;;;;;;5069650;28;20879;-58
2021/04/26 10:14:40;;;;;;;3.17;1.17;;;12.20;1.00;;;;;;5074479;28;20429;-58
2021/04/26 10:17:13;;;;;;;1.07;0.97;;;12.70;1.00;;;;;;5089408;28;20439;-58
2021/04/26 10:19:45;;;;;;;3.83;0.93;;;12.80;1.00;;;;;;5069010;28;20452;-57
2021/04/26 10:22:11;;;;;;;0.90;0.80;;;13.00;1.00;;;;;;5069946;28;20440;-57
2021/04/26 10:24:51;;;;;;;2.60;0.80;;;12.80;1.00;;;;;;5070110;28;20433;-57
2021/04/26 10:27:31;;;;;;;2.40;1.07;;;12.80;1.00;;;;;;5073883;28;20545;-59
2021/04/26 10:30:12;;;;;;;1.40;1.30;;;13.00;1.00;;;;;;5069750;28;20970;-57
2021/04/26 10:32:53;;;;;;;1.97;1.03;;;13.60;1.00;;;;;;5069964;28;20511;-57
2021/04/26 10:35:19;;;;;;;2.90;0.90;;;13.20;1.00;;;;;;5070111;28;20430;-56
2021/04/26 10:37:45;;;;;;;1.00;0.83;;;13.10;1.00;;;;;;5069345;28;20813;-57
2021/04/26 10:40:14;;;;;;;2.17;0.97;;;12.20;1.00;;;;;;5067296;28;20227;-56
2021/04/26 10:42:46;;;;;;;1.67;1.10;;;11.90;1.00;;;;;;5069835;28;20190;-57
2021/04/26 10:45:11;;;;;;;3.23;2.00;;;11.80;1.00;;;;;;5070115;28;20452;-57
2021/04/26 10:47:38;;;;;;;1.87;1.47;;;12.00;1.00;;;;;;5069244;28;20803;-57
2021/04/26 10:50:04;;;;;;;2.17;0.93;;;12.20;1.00;;;;;;5066724;28;20183;-57
2021/04/26 10:52:29;;;;;;;2.37;1.90;;;12.20;1.00;;;;;;5067811;28;20453;-57
2021/04/26 10:55:08;;;;;;;2.77;1.30;;;12.80;1.00;;;;;;5066230;28;20250;-57
2021/04/26 10:58:02;;;;;;;1.60;1.20;;;12.70;1.00;;;;;;5072235;28;20273;-58
2021/04/26 11:00:32;;;;;;;1.27;1.17;;;12.50;1.00;;;;;;5089908;28;20784;-57
2021/04/26 11:03:20;;;;;;;4.73;1.40;;;12.70;1.00;;;;;;5076258;28;20445;-58
2021/04/26 11:05:47;;;;;;;1.30;1.20;;;13.00;1.00;;;;;;5076657;28;20521;-59
2021/04/26 11:11:28;;;;;;;2.87;1.70;;;15.10;1.00;;;;;;5069896;28;20433;-58
2021/04/26 11:13:57;;;;;;;2.30;1.23;;;12.00;1.00;;;;;;5068791;28;20457;-57
2021/04/26 11:16:27;;;;;;;3.20;1.20;;;11.90;1.00;;;;;;5067043;28;20463;-58
2021/04/26 11:19:10;;;;;;;1.33;0.90;;;12.20;1.00;;;;;;5073512;28;20461;-57
2021/04/26 11:21:46;;;;;;;2.40;1.20;;;12.40;1.00;;;;;;5073545;28;20433;-59
2021/04/26 11:24:33;;;;;;;1.20;0.90;;;12.40;1.00;;;;;;5072624;28;20466;-58
2021/04/26 11:27:17;;;;;;;4.53;1.50;;;12.50;1.00;;;;;;5072928;28;20444;-57
2021/04/26 11:29:47;;;;;;;2.17;1.43;;;13.00;1.00;;;;;;5093310;28;20992;-57
2021/04/26 11:32:14;;;;;;;3.43;1.10;;;13.30;1.00;;;;;;5076084;28;20532;-58
2021/04/26 11:34:49;;;;;;;0.97;0.87;;;14.10;1.00;;;;;;5073107;28;20490;-56
2021/04/26 11:37:16;;;;;;;1.77;1.10;;;14.00;1.00;;;;;;5082104;28;20450;-57
2021/04/26 11:39:42;;;;;;;2.60;1.07;;;13.80;1.00;;;;;;5076718;28;20437;-57
2021/04/26 11:42:18;;;;;;;1.70;0.80;;;13.80;1.00;;;;;;5073271;28;20795;-58
2021/04/26 11:44:43;;;;;;;1.20;0.80;;;13.80;1.00;;;;;;5072330;28;20464;-57
2021/04/26 11:47:15;;;;;;;1.70;0.90;;;13.60;1.00;;;;;;5071473;28;20445;-57
2021/04/26 11:49:46;;;;;;;1.77;1.00;;;13.70;1.00;;;;;;5089365;28;20183;-58
2021/04/26 11:52:22;;;;;;;1.40;0.83;;;13.50;1.00;;;;;;5092818;28;20441;-57
2021/04/26 11:55:03;;;;;;;3.13;1.10;;;13.20;1.00;;;;;;5075966;28;20528;-57
2021/04/26 11:57:41;;;;;;;3.80;1.17;;;13.40;1.00;;;;;;5070079;28;20434;-57
2021/04/26 12:00:13;;;;;;;3.07;1.10;;;13.90;1.00;;;;;;5069087;28;21187;-57
2021/04/26 12:02:42;;;;;;;1.50;1.03;;;14.30;1.00;;;;;;5070832;28;20442;-58
2021/04/26 12:05:23;;;;;;;1.83;1.20;;;13.90;1.00;;;;;;5071799;28;20433;-56
2021/04/26 12:07:51;;;;;;;1.07;0.97;;;13.70;1.00;;;;;;5071854;28;20472;-57
2021/04/26 12:10:20;;;;;;;1.40;1.00;;;13.60;1.00;;;;;;5080887;28;20435;-60
2021/04/26 12:12:46;;;;;;;2.13;1.60;;;13.50;1.00;;;;;;5071563;28;20913;-57
2021/04/26 12:15:14;;;;;;;2.33;1.40;;;13.80;1.00;;;;;;5073281;28;20958;-57
2021/04/26 12:17:43;;;;;;;2.07;0.93;;;13.70;1.00;;;;;;5070321;28;20454;-57
2021/04/26 12:20:14;;;;;;;1.50;1.07;;;13.70;1.00;;;;;;5068596;28;20440;-57
2021/04/26 12:22:41;;;;;;;1.40;1.30;;;13.30;1.00;;;;;;5069874;28;20511;-56
2021/04/26 12:25:08;;;;;;;2.70;1.00;;;12.60;1.00;;;;;;5069921;28;20445;-57
2021/04/26 12:27:34;;;;;;;1.30;0.80;;;12.50;1.00;;;;;;5069340;28;20543;-56
2021/04/26 12:30:21;;;;;;;3.33;1.20;;;12.40;1.00;;;;;;5070550;28;20461;-56
2021/04/26 12:32:48;;;;;;;1.73;1.63;;;12.80;1.00;;;;;;5070212;28;20565;-55
2021/04/26 12:35:17;;;;;;;1.40;1.30;;;13.20;1.00;;;;;;5069872;28;20446;-56
2021/04/26 12:37:46;;;;;;;1.13;0.83;;;13.30;1.00;;;;;;5069549;28;20606;-56
2021/04/26 12:40:22;;;;;;;3.13;1.00;;;13.10;1.00;;;;;;5069151;28;20473;-57
2021/04/26 12:42:57;;;;;;;1.50;1.20;;;13.00;1.00;;;;;;5070321;28;20448;-58
2021/04/26 12:45:45;;;;;;;1.20;1.00;;;13.10;1.00;;;;;;5070592;28;20472;-57
2021/04/26 12:48:34;;;;;;;2.47;0.60;;;13.10;1.00;;;;;;5070303;28;20437;-56
2021/04/26 12:51:03;;;;;;;2.43;1.87;;;13.00;1.00;;;;;;5063531;28;20540;-58
2021/04/26 12:53:28;;;;;;;1.40;0.87;;;13.10;1.00;;;;;;5082516;28;20977;-55
2021/04/26 12:55:59;;;;;;;2.33;1.90;;;12.90;1.00;;;;;;5068715;28;20444;-57
2021/04/26 12:58:26;;;;;;;2.50;1.27;;;12.90;1.00;;;;;;5066285;28;20202;-58
2021/04/26 13:00:57;;;;;;;1.40;1.00;;;12.80;1.00;;;;;;5069273;28;20533;-58
2021/04/26 13:03:29;;;;;;;3.83;1.20;;;12.70;1.00;;;;;;5068990;28;20964;-56
2021/04/26 13:06:00;;;;;;;3.60;1.10;;;13.00;1.00;;;;;;5066075;28;20451;-57